Time;durP1;ratioP1;P1;durP2;ratioP2;P2;SDS_P1;SDS_P2;PMS_P1;PMS_P2;Temp;Humidity;BMP_temperature;BMP_pressure;BME280_temperature;BME280_humidity;BME280_pressure;Samples;Min_cycle;Max_cycle;Signal;HPM_P1;HPM_P2
2023/04/12 00:00:22;;;;;;;1.00;0.75;;;;;;;7.24;95.37;100293.03;5078389;28;20043;-53
2023/04/12 00:02:52;;;;;;;0.40;0.40;;;;;;;7.19;95.33;100287.94;5088935;28;20039;-54
2023/04/12 00:05:22;;;;;;;0.50;0.50;;;;;;;7.27;94.94;100291.56;5071859;28;20398;-53
2023/04/12 00:07:51;;;;;;;0.55;0.50;;;;;;;7.30;95.14;100285.53;5078111;28;20024;-54
2023/04/12 00:10:18;;;;;;;0.73;0.73;;;;;;;7.22;95.01;100281.88;5085879;28;20177;-51
2023/04/12 00:12:43;;;;;;;1.50;0.90;;;;;;;7.37;95.18;100279.59;5091843;28;20036;-53
2023/04/12 00:15:09;;;;;;;3.30;0.55;;;;;;;7.49;94.29;100279.53;5092449;28;20016;-53
2023/04/12 00:17:35;;;;;;;1.15;0.85;;;;;;;7.35;94.61;100276.47;5080721;28;20046;-57
2023/04/12 00:20:04;;;;;;;0.65;0.50;;;;;;;7.21;94.53;100274.97;5066193;28;20308;-55
2023/04/12 00:22:30;;;;;;;0.90;0.65;;;;;;;7.30;94.68;100275.59;5083531;28;20466;-54
2023/04/12 00:24:55;;;;;;;2.28;0.63;;;;;;;7.35;94.03;100266.53;5067801;28;20035;-54
2023/04/12 00:27:21;;;;;;;0.20;0.20;;;;;;;7.42;93.72;100269.41;5073752;28;20040;-51
2023/04/12 00:29:46;;;;;;;0.45;0.45;;;;;;;7.29;94.10;100255.31;5080388;28;20102;-51
2023/04/12 00:32:12;;;;;;;0.50;0.50;;;;;;;7.33;93.08;100250.03;5070073;28;20271;-56
2023/04/12 00:34:37;;;;;;;0.80;0.80;;;;;;;7.22;94.34;100249.75;5088702;28;20028;-51
2023/04/12 00:37:03;;;;;;;0.45;0.40;;;;;;;7.36;93.96;100245.88;5067653;28;20051;-52
2023/04/12 00:39:29;;;;;;;5.85;1.45;;;;;;;7.46;92.62;100248.84;5079125;28;20031;-55
2023/04/12 00:41:56;;;;;;;0.52;0.52;;;;;;;7.30;92.94;100240.78;5062245;28;20028;-53
2023/04/12 00:44:22;;;;;;;2.47;1.02;;;;;;;7.17;93.51;100241.97;5083382;28;20670;-52
2023/04/12 00:46:47;;;;;;;0.38;0.38;;;;;;;7.05;93.84;100239.34;5075006;28;20040;-55
2023/04/12 00:49:14;;;;;;;0.70;0.57;;;;;;;6.96;94.01;100230.69;5082863;28;20035;-56
2023/04/12 00:51:42;;;;;;;0.50;0.50;;;;;;;7.09;94.92;100234.84;5061993;28;20454;-52
2023/04/12 00:54:07;;;;;;;0.40;0.40;;;;;;;6.92;94.23;100229.81;5062835;28;20103;-54
2023/04/12 00:56:33;;;;;;;1.17;0.77;;;;;;;7.03;93.99;100235.44;5076679;28;20089;-55
2023/04/12 00:59:00;;;;;;;0.60;0.60;;;;;;;6.98;94.44;100236.47;5068878;28;20031;-51
2023/04/12 01:01:27;;;;;;;0.38;0.38;;;;;;;7.05;94.13;100231.31;5088625;28;20063;-51
2023/04/12 01:03:59;;;;;;;0.32;0.32;;;;;;;6.99;94.26;100219.28;5064719;28;20025;-51
2023/04/12 01:06:48;;;;;;;0.30;0.30;;;;;;;7.03;94.40;100208.66;5057942;28;20036;-51
2023/04/12 01:09:33;;;;;;;1.35;0.60;;;;;;;7.06;93.29;100203.44;5078074;28;20032;-52
2023/04/12 01:12:20;;;;;;;0.50;0.40;;;;;;;7.14;92.76;100209.75;5086802;28;20510;-53
2023/04/12 01:14:57;;;;;;;0.50;0.40;;;;;;;7.00;93.70;100201.34;5082151;28;20036;-51
2023/04/12 01:17:28;;;;;;;0.40;0.40;;;;;;;6.99;93.98;100192.53;5052304;28;20115;-55
2023/04/12 01:20:00;;;;;;;0.82;0.57;;;;;;;6.98;93.15;100190.97;5070030;28;20050;-55
2023/04/12 01:22:53;;;;;;;2.15;0.98;;;;;;;6.97;93.65;100189.41;5047222;28;20174;-55
2023/04/12 01:25:28;;;;;;;0.68;0.57;;;;;;;6.98;92.86;100171.44;5086688;28;20043;-53
2023/04/12 01:27:58;;;;;;;1.70;0.65;;;;;;;7.01;93.10;100179.56;5048833;28;20040;-52
2023/04/12 01:30:26;;;;;;;0.60;0.60;;;;;;;6.94;92.90;100170.56;5066015;28;20032;-53
2023/04/12 01:32:54;;;;;;;0.63;0.50;;;;;;;6.92;92.40;100167.47;5085236;28;20516;-53
2023/04/12 01:35:21;;;;;;;0.57;0.52;;;;;;;6.97;92.75;100168.00;5058360;28;20082;-51
2023/04/12 01:37:47;;;;;;;0.65;0.65;;;;;;;6.76;92.63;100164.75;5039238;28;20036;-51
2023/04/12 01:40:39;;;;;;;3.30;1.08;;;;;;;6.90;92.83;100159.78;5083692;28;20032;-55
2023/04/12 01:43:06;;;;;;;0.60;0.60;;;;;;;6.98;92.33;100166.88;4973215;28;20086;-52
2023/04/12 01:45:32;;;;;;;2.22;0.75;;;;;;;7.01;91.81;100160.84;4977742;28;20050;-52
2023/04/12 01:47:58;;;;;;;0.38;0.38;;;;;;;7.02;91.91;100158.94;4980263;28;20053;-53
2023/04/12 01:50:59;;;;;;;0.73;0.73;;;;;;;7.03;92.22;100155.13;4957242;28;20102;-56
2023/04/12 01:53:32;;;;;;;0.30;0.30;;;;;;;6.95;92.26;100148.81;4972283;28;20097;-52
2023/04/12 01:56:05;;;;;;;0.50;0.50;;;;;;;7.00;92.03;100148.59;4966396;28;20404;-51
2023/04/12 01:58:32;;;;;;;0.65;0.65;;;;;;;6.91;92.07;100142.59;4963425;28;20058;-51
2023/04/12 02:01:00;;;;;;;0.55;0.55;;;;;;;7.02;91.88;100143.66;4969282;28;20043;-54
2023/04/12 02:03:29;;;;;;;0.52;0.52;;;;;;;7.01;91.35;100135.97;4983015;28;20034;-51
2023/04/12 02:05:58;;;;;;;1.00;0.70;;;;;;;7.05;91.59;100132.25;4972653;28;20058;-53
2023/04/12 02:08:25;;;;;;;0.55;0.50;;;;;;;7.01;92.13;100126.03;4979027;28;20038;-54
2023/04/12 02:10:50;;;;;;;0.32;0.32;;;;;;;7.01;92.23;100119.91;4976895;28;20035;-55
2023/04/12 02:13:19;;;;;;;0.45;0.45;;;;;;;6.98;92.36;100116.03;4965259;28;20373;-56
2023/04/12 02:15:44;;;;;;;0.70;0.70;;;;;;;7.10;92.13;100105.22;4973920;28;20044;-57
2023/04/12 02:18:12;;;;;;;1.15;0.75;;;;;;;7.04;92.36;100101.28;4972806;28;20133;-55
2023/04/12 02:20:39;;;;;;;0.40;0.40;;;;;;;7.06;92.18;100101.72;5049899;28;20039;-56
2023/04/12 02:23:06;;;;;;;0.20;0.20;;;;;;;7.08;91.68;100112.81;5094773;28;20024;-56
2023/04/12 02:25:32;;;;;;;0.38;0.38;;;;;;;7.13;91.55;100106.44;5094169;28;20050;-55
2023/04/12 02:27:58;;;;;;;0.73;0.73;;;;;;;7.23;91.04;100093.34;5072627;28;20826;-57
2023/04/12 02:30:23;;;;;;;0.68;0.68;;;;;;;7.19;90.86;100089.00;5072219;28;20032;-51
2023/04/12 02:32:52;;;;;;;0.77;0.77;;;;;;;7.15;91.20;100098.84;5052265;28;20032;-53
2023/04/12 02:35:31;;;;;;;0.38;0.38;;;;;;;7.10;91.29;100081.13;5072760;28;20032;-57
2023/04/12 02:38:07;;;;;;;0.30;0.30;;;;;;;6.94;92.31;100077.69;5052921;28;20070;-53
2023/04/12 02:40:38;;;;;;;0.28;0.28;;;;;;;7.20;91.73;100069.91;5069569;28;20028;-53
2023/04/12 02:43:05;;;;;;;0.50;0.50;;;;;;;7.14;90.50;100071.28;5067908;28;20081;-51
2023/04/12 02:45:31;;;;;;;0.47;0.40;;;;;;;7.30;90.41;100061.34;5069915;28;20059;-53
2023/04/12 02:47:57;;;;;;;1.13;1.05;;;;;;;7.23;91.08;100061.19;5064732;28;20024;-51
2023/04/12 02:50:28;;;;;;;0.55;0.55;;;;;;;7.36;90.40;100053.06;5065001;28;20077;-51
2023/04/12 02:53:04;;;;;;;0.45;0.38;;;;;;;7.21;90.43;100042.03;5066646;28;20060;-52
2023/04/12 02:55:31;;;;;;;0.40;0.40;;;;;;;7.27;90.29;100031.81;5069322;28;20039;-56
2023/04/12 02:57:58;;;;;;;0.57;0.57;;;;;;;7.24;90.42;100035.97;5050355;28;20031;-54
2023/04/12 03:00:24;;;;;;;0.77;0.77;;;;;;;7.31;90.08;100032.69;5052332;28;20028;-55
2023/04/12 03:02:57;;;;;;;0.32;0.32;;;;;;;7.34;89.72;100029.31;5052276;28;20028;-54
2023/04/12 03:05:26;;;;;;;0.50;0.50;;;;;;;7.33;89.42;100022.41;5071043;28;20090;-53
2023/04/12 03:07:51;;;;;;;0.38;0.38;;;;;;;7.15;88.81;100007.81;5088739;28;20498;-53
2023/04/12 03:10:22;;;;;;;0.50;0.50;;;;;;;7.17;89.91;100010.94;5064794;28;20546;-54
2023/04/12 03:13:00;;;;;;;0.43;0.43;;;;;;;7.40;88.99;99993.09;5069345;28;20290;-52
2023/04/12 03:15:37;;;;;;;0.50;0.50;;;;;;;7.45;88.71;99992.84;5062411;28;20058;-54
2023/04/12 03:18:03;;;;;;;0.30;0.30;;;;;;;7.37;88.50;99977.75;5066172;28;20047;-58
2023/04/12 03:20:34;;;;;;;0.20;0.20;;;;;;;7.37;88.91;99971.59;5069344;28;20035;-55
2023/04/12 03:23:04;;;;;;;0.50;0.50;;;;;;;7.42;88.24;99968.63;5065130;28;20116;-55
2023/04/12 03:25:32;;;;;;;0.35;0.35;;;;;;;7.48;88.07;99968.03;5069431;28;20036;-53
2023/04/12 03:28:10;;;;;;;0.30;0.30;;;;;;;7.56;88.15;99969.72;5070678;28;20046;-57
2023/04/12 03:30:48;;;;;;;0.65;0.65;;;;;;;7.54;88.08;99963.16;5071404;28;20130;-53
2023/04/12 03:33:16;;;;;;;0.40;0.40;;;;;;;7.55;87.89;99957.44;5067944;28;20036;-56
2023/04/12 03:35:44;;;;;;;0.30;0.30;;;;;;;7.45;87.11;99955.34;5089491;28;20077;-51
2023/04/12 03:38:10;;;;;;;0.60;0.60;;;;;;;7.52;87.53;99952.81;5071848;28;20039;-55
2023/04/12 03:40:36;;;;;;;0.70;0.40;;;;;;;7.45;87.29;99943.84;5071728;28;20032;-53
2023/04/12 03:43:01;;;;;;;0.90;0.40;;;;;;;7.49;86.72;99945.44;5091510;28;20394;-53
2023/04/12 03:45:28;;;;;;;0.45;0.45;;;;;;;7.50;86.79;99943.56;5070688;28;20062;-56
2023/04/12 03:47:56;;;;;;;0.30;0.30;;;;;;;7.44;86.89;99928.88;5068713;28;20502;-55
2023/04/12 03:50:22;;;;;;;0.30;0.30;;;;;;;7.32;87.16;99921.00;5074054;22;20048;-57
2023/04/12 03:52:54;;;;;;;1.13;0.60;;;;;;;7.35;87.24;99914.94;5044039;28;20060;-56
2023/04/12 03:55:26;;;;;;;0.45;0.40;;;;;;;7.31;86.34;99920.22;5050105;28;20364;-59
2023/04/12 03:57:51;;;;;;;0.40;0.40;;;;;;;7.36;86.58;99916.47;5070521;28;20098;-58
2023/04/12 04:00:20;;;;;;;0.60;0.60;;;;;;;7.43;86.18;99911.28;5062555;28;20460;-57
2023/04/12 04:03:02;;;;;;;0.75;0.73;;;;;;;7.41;86.20;99900.13;5056486;28;20032;-55
2023/04/12 04:05:31;;;;;;;0.40;0.40;;;;;;;7.44;86.23;99896.75;5066669;28;20028;-57
2023/04/12 04:07:59;;;;;;;5.43;0.65;;;;;;;7.32;85.80;99886.94;5051175;28;20027;-58
2023/04/12 04:10:27;;;;;;;0.47;0.43;;;;;;;7.35;85.93;99877.44;5067905;28;20374;-57
2023/04/12 04:12:55;;;;;;;1.05;0.57;;;;;;;7.23;85.55;99871.09;5067659;28;21001;-58
2023/04/12 04:15:21;;;;;;;0.47;0.40;;;;;;;7.26;85.56;99861.56;5080704;28;20431;-56
2023/04/12 04:17:47;;;;;;;0.30;0.30;;;;;;;7.16;86.32;99860.22;5065939;28;20038;-58
2023/04/12 04:20:17;;;;;;;0.32;0.32;;;;;;;7.10;86.62;99858.94;5066924;28;20074;-55
2023/04/12 04:22:47;;;;;;;0.30;0.30;;;;;;;7.15;85.81;99866.72;5070084;28;20039;-56
2023/04/12 04:25:15;;;;;;;0.80;0.80;;;;;;;7.17;85.96;99847.63;5047524;28;20032;-56
2023/04/12 04:27:44;;;;;;;0.60;0.60;;;;;;;6.97;86.62;99852.19;5067045;28;20108;-59
2023/04/12 04:30:16;;;;;;;0.25;0.25;;;;;;;7.09;86.23;99849.38;5056074;28;20032;-56
2023/04/12 04:32:44;;;;;;;0.30;0.30;;;;;;;7.26;85.77;99846.28;5063311;28;20024;-57
2023/04/12 04:35:14;;;;;;;0.40;0.40;;;;;;;7.20;84.82;99834.31;5066497;28;20027;-58
2023/04/12 04:37:51;;;;;;;0.30;0.30;;;;;;;7.10;85.73;99834.84;5058940;28;20036;-57
2023/04/12 04:40:20;;;;;;;0.52;0.52;;;;;;;7.17;85.46;99824.31;5067552;28;20028;-58
2023/04/12 04:42:53;;;;;;;0.60;0.50;;;;;;;7.14;85.29;99819.66;5053518;28;20024;-59
2023/04/12 04:45:25;;;;;;;0.95;0.50;;;;;;;7.27;84.59;99814.94;5054488;28;20530;-57
2023/04/12 04:47:55;;;;;;;0.38;0.38;;;;;;;7.30;84.14;99817.69;5068669;28;20060;-59
2023/04/12 04:50:22;;;;;;;0.50;0.50;;;;;;;7.45;83.86;99801.91;5076477;28;20042;-57
2023/04/12 04:52:50;;;;;;;0.52;0.52;;;;;;;7.50;83.25;99801.59;5068152;28;20074;-56
2023/04/12 04:55:17;;;;;;;1.58;0.95;;;;;;;7.37;83.21;99801.00;5068479;28;20483;-57
2023/04/12 04:57:44;;;;;;;4.10;0.65;;;;;;;7.35;82.95;99787.19;5070785;28;20078;-57
2023/04/12 05:00:10;;;;;;;0.60;0.60;;;;;;;7.34;82.90;99782.19;5067660;28;20032;-56
2023/04/12 05:02:41;;;;;;;0.70;0.70;;;;;;;7.34;82.90;99780.25;5057938;28;20076;-59
2023/04/12 05:05:09;;;;;;;0.40;0.40;;;;;;;7.34;82.66;99785.63;5063084;28;20402;-58
2023/04/12 05:07:35;;;;;;;0.38;0.38;;;;;;;7.35;82.48;99781.81;5048262;28;20023;-58
2023/04/12 05:10:02;;;;;;;0.40;0.40;;;;;;;7.28;83.01;99787.03;5049024;28;20510;-58
2023/04/12 05:12:30;;;;;;;0.75;0.50;;;;;;;7.43;81.73;99785.41;5064776;28;20059;-59
2023/04/12 05:14:56;;;;;;;0.40;0.40;;;;;;;7.52;81.43;99786.72;5094208;28;20020;-60
2023/04/12 05:17:22;;;;;;;0.50;0.50;;;;;;;7.37;81.97;99778.78;5066054;28;20035;-58
2023/04/12 05:19:47;;;;;;;0.20;0.20;;;;;;;7.47;81.50;99773.59;5083885;28;20067;-58
2023/04/12 05:22:13;;;;;;;0.32;0.32;;;;;;;7.49;81.42;99773.28;5067491;28;20031;-59
2023/04/12 05:24:41;;;;;;;0.60;0.60;;;;;;;7.43;81.76;99769.34;5078834;28;20055;-58
2023/04/12 05:27:07;;;;;;;0.70;0.55;;;;;;;7.32;81.66;99772.59;5065980;28;20474;-59
2023/04/12 05:29:33;;;;;;;0.60;0.60;;;;;;;7.38;81.60;99770.38;5067861;28;20041;-59
2023/04/12 05:31:59;;;;;;;0.82;0.70;;;;;;;7.41;81.49;99766.22;5077941;28;20032;-59
2023/04/12 05:34:25;;;;;;;0.32;0.32;;;;;;;7.16;81.80;99763.09;5065052;28;20390;-59
2023/04/12 05:36:52;;;;;;;0.43;0.43;;;;;;;7.21;82.06;99760.91;5060756;28;20040;-58
2023/04/12 05:39:19;;;;;;;0.50;0.50;;;;;;;7.16;81.91;99761.19;5046821;28;20102;-58
2023/04/12 05:41:45;;;;;;;0.50;0.50;;;;;;;7.20;82.11;99754.00;5047521;28;20040;-59
2023/04/12 05:44:11;;;;;;;0.43;0.43;;;;;;;7.28;81.69;99750.31;5049649;28;20047;-56
2023/04/12 05:46:37;;;;;;;1.48;0.70;;;;;;;7.40;81.07;99745.91;5052809;28;20128;-57
2023/04/12 05:49:03;;;;;;;0.57;0.57;;;;;;;7.35;81.27;99744.34;5047764;28;20191;-59
2023/04/12 05:51:28;;;;;;;0.35;0.35;;;;;;;7.38;81.42;99740.94;5060315;28;20027;-59
2023/04/12 05:53:55;;;;;;;0.47;0.47;;;;;;;7.42;80.75;99754.38;5053147;28;20031;-58
2023/04/12 05:56:21;;;;;;;0.40;0.40;;;;;;;7.60;80.72;99736.72;5066785;28;20028;-60
2023/04/12 05:58:47;;;;;;;0.75;0.73;;;;;;;7.62;79.36;99737.94;5065220;28;20030;-59
2023/04/12 06:01:15;;;;;;;0.47;0.47;;;;;;;7.67;80.14;99744.88;5042474;28;20464;-60
2023/04/12 06:03:42;;;;;;;0.63;0.63;;;;;;;7.83;78.62;99738.28;5067136;28;20024;-59
2023/04/12 06:06:09;;;;;;;0.60;0.60;;;;;;;7.99;78.44;99740.81;5068004;28;20031;-59
2023/04/12 06:08:36;;;;;;;1.05;0.57;;;;;;;7.95;78.74;99740.00;5068228;28;20020;-57
2023/04/12 06:11:03;;;;;;;0.43;0.40;;;;;;;8.10;77.41;99741.75;5070218;28;20070;-57
2023/04/12 06:13:30;;;;;;;1.50;0.50;;;;;;;8.00;78.06;99737.00;5069256;28;20042;-60
2023/04/12 06:15:55;;;;;;;0.30;0.30;;;;;;;8.29;77.05;99717.53;5072880;28;20028;-58
2023/04/12 06:18:22;;;;;;;0.90;0.50;;;;;;;8.39;76.95;99716.13;5072616;28;20032;-57
2023/04/12 06:20:48;;;;;;;0.52;0.52;;;;;;;8.45;76.29;99712.78;5069709;28;20028;-58
2023/04/12 06:23:13;;;;;;;0.40;0.40;;;;;;;8.63;75.63;99704.97;5071285;28;20111;-60
2023/04/12 06:25:39;;;;;;;0.47;0.47;;;;;;;8.58;76.03;99699.91;5091355;28;20063;-59
2023/04/12 06:28:05;;;;;;;0.25;0.25;;;;;;;8.68;75.83;99697.34;5070414;28;20020;-59
2023/04/12 06:30:36;;;;;;;;;;;;;;;8.88;75.21;99692.59;5071842;28;20505;-60
2023/04/12 06:50:56;;;;;;;0.30;0.30;;;;;;;10.25;69.06;99671.50;5470350;23;20174;-69
2023/04/12 06:53:22;;;;;;;2.03;0.50;;;;;;;10.51;66.23;99661.25;4976781;23;20050;-56
2023/04/12 06:55:47;;;;;;;3.53;0.47;;;;;;;10.77;66.32;99665.59;4986648;28;20411;-53
2023/04/12 06:58:18;;;;;;;0.75;0.60;;;;;;;10.94;64.27;99664.09;4985488;28;21003;-58
2023/04/12 07:00:43;;;;;;;0.57;0.57;;;;;;;10.86;65.34;99658.69;5006283;28;20091;-57
2023/04/12 07:03:09;;;;;;;0.47;0.32;;;;;;;10.82;64.48;99665.19;5023279;23;20404;-52
2023/04/12 07:05:38;;;;;;;0.28;0.28;;;;;;;10.78;64.44;99656.38;4998110;28;20149;-55
2023/04/12 07:08:04;;;;;;;0.55;0.22;;;;;;;10.80;63.92;99652.13;5005776;28;20402;-51
2023/04/12 07:10:30;;;;;;;0.90;0.50;;;;;;;10.98;62.77;99649.47;4989943;28;20115;-55
2023/04/12 07:12:57;;;;;;;0.57;0.50;;;;;;;11.36;62.16;99646.06;4979566;28;20117;-55
2023/04/12 07:15:23;;;;;;;0.65;0.22;;;;;;;11.68;58.76;99660.34;4991250;23;20068;-67
2023/04/12 07:17:49;;;;;;;0.28;0.28;;;;;;;11.44;58.27;99647.59;4976133;28;20030;-70
2023/04/12 07:20:14;;;;;;;0.40;0.40;;;;;;;11.64;58.23;99639.91;5013290;28;20480;-71
2023/04/12 07:22:57;;;;;;;0.20;0.17;;;;;;;12.05;58.69;99643.72;5007194;28;20654;-71
2023/04/12 07:25:23;;;;;;;0.98;0.28;;;;;;;12.29;56.89;99628.63;4990279;28;20039;-68
2023/04/12 07:27:48;;;;;;;0.38;0.30;;;;;;;12.23;55.84;99630.94;4951542;28;20080;-71
2023/04/12 07:30:14;;;;;;;0.30;0.30;;;;;;;11.95;56.56;99622.16;4983973;28;20058;-68
2023/04/12 07:32:39;;;;;;;0.52;0.38;;;;;;;12.03;57.41;99621.00;4976922;28;21197;-71
2023/04/12 07:35:05;;;;;;;0.30;0.30;;;;;;;12.07;57.63;99619.81;4967483;28;20041;-71
2023/04/12 07:37:30;;;;;;;0.30;0.30;;;;;;;12.28;58.18;99616.28;4984584;28;20030;-72
2023/04/12 07:40:16;;;;;;;0.47;0.30;;;;;;;12.44;56.50;99617.38;4985959;28;20418;-71
2023/04/12 07:42:41;;;;;;;0.50;0.50;;;;;;;12.69;55.94;99626.16;4932113;28;20053;-69
2023/04/12 07:45:07;;;;;;;0.22;0.22;;;;;;;12.59;56.43;99613.47;4943110;28;20043;-71
2023/04/12 07:47:33;;;;;;;0.63;0.40;;;;;;;12.36;56.44;99615.88;4931228;29;20051;-71
2023/04/12 07:49:58;;;;;;;0.20;0.20;;;;;;;12.43;56.61;99606.97;4914494;29;20064;-71
2023/04/12 07:52:24;;;;;;;1.35;0.43;;;;;;;12.26;56.99;99618.59;4930331;29;20178;-72
2023/04/12 07:54:50;;;;;;;0.55;0.47;;;;;;;12.10;57.73;99600.16;4947399;29;20133;-71
2023/04/12 07:57:15;;;;;;;0.35;0.32;;;;;;;12.37;57.66;99603.91;4949625;29;20130;-71
2023/04/12 07:59:40;;;;;;;0.28;0.25;;;;;;;12.47;57.01;99594.22;4948158;29;20055;-72
2023/04/12 08:02:06;;;;;;;0.20;0.20;;;;;;;11.99;57.79;99590.53;4949519;29;20086;-70
2023/04/12 08:04:31;;;;;;;0.30;0.20;;;;;;;11.83;58.92;99588.28;4930849;29;20043;-71
2023/04/12 08:06:57;;;;;;;0.25;0.25;;;;;;;11.90;59.96;99587.50;4916317;29;20045;-71
2023/04/12 08:09:23;;;;;;;0.47;0.30;;;;;;;12.05;58.81;99592.47;4949656;29;20043;-71
2023/04/12 08:11:48;;;;;;;0.10;0.10;;;;;;;12.00;60.03;99581.31;4945541;29;20118;-72
2023/04/12 08:14:14;;;;;;;0.80;0.10;;;;;;;12.11;60.28;99582.03;4949777;29;20047;-71
2023/04/12 08:16:40;;;;;;;0.52;0.52;;;;;;;12.26;58.19;99567.31;4949191;28;20097;-70
2023/04/12 08:19:05;;;;;;;0.55;0.32;;;;;;;12.22;59.97;99556.53;4960499;28;20038;-70
2023/04/12 08:21:31;;;;;;;0.65;0.38;;;;;;;12.39;58.38;99563.00;4985363;28;20386;-68
2023/04/12 08:23:56;;;;;;;0.45;0.43;;;;;;;12.54;57.44;99564.50;4994100;28;20038;-72
2023/04/12 08:26:22;;;;;;;0.30;0.30;;;;;;;12.40;57.34;99553.75;4994182;28;20034;-71
2023/04/12 08:28:47;;;;;;;0.32;0.32;;;;;;;12.33;55.26;99549.16;4984000;28;20046;-69
2023/04/12 08:31:14;;;;;;;0.60;0.40;;;;;;;12.35;55.90;99544.13;4993602;28;20510;-71
2023/04/12 08:33:39;;;;;;;0.28;0.28;;;;;;;12.33;56.36;99545.69;4992805;28;20089;-70
2023/04/12 08:36:06;;;;;;;0.30;0.30;;;;;;;12.13;56.26;99553.50;4977346;28;20026;-72
2023/04/12 08:38:31;;;;;;;0.25;0.20;;;;;;;12.13;55.27;99526.50;4991708;28;20038;-71
2023/04/12 08:40:57;;;;;;;0.22;0.22;;;;;;;12.09;55.39;99531.16;4982438;28;20225;-71
2023/04/12 08:43:27;;;;;;;0.80;0.40;;;;;;;12.20;56.19;99531.09;4989927;28;20502;-71
2023/04/12 08:45:53;;;;;;;0.50;0.50;;;;;;;12.27;55.44;99515.63;4987814;28;20045;-71
2023/04/12 08:48:21;;;;;;;5.00;0.50;;;;;;;12.23;55.69;99533.03;5001589;28;20409;-71
2023/04/12 08:50:48;;;;;;;0.15;0.15;;;;;;;12.25;55.74;99509.84;4987424;28;20475;-70
2023/04/12 08:53:13;;;;;;;1.85;0.40;;;;;;;12.33;55.05;99513.31;4972758;28;20038;-71
2023/04/12 08:55:44;;;;;;;0.90;0.52;;;;;;;12.06;55.15;99510.34;4989855;28;20041;-70
2023/04/12 08:58:13;;;;;;;0.57;0.40;;;;;;;12.06;56.07;99491.44;4989664;28;20437;-70
2023/04/12 09:00:40;;;;;;;0.38;0.35;;;;;;;12.14;55.61;99487.56;4991767;28;20027;-71
2023/04/12 09:03:05;;;;;;;0.43;0.30;;;;;;;12.06;56.18;99480.66;4986617;28;20478;-68
2023/04/12 09:05:31;;;;;;;0.28;0.28;;;;;;;12.14;56.00;99463.25;4990666;28;20035;-69
2023/04/12 09:07:57;;;;;;;0.30;0.30;;;;;;;11.78;56.03;99453.81;4990487;28;20034;-71
2023/04/12 09:10:35;;;;;;;0.38;0.38;;;;;;;11.87;56.89;99454.16;4991411;28;20035;-70
2023/04/12 09:13:02;;;;;;;1.15;0.60;;;;;;;12.03;56.53;99449.06;4986980;28;20759;-71
2023/04/12 09:15:29;;;;;;;0.28;0.28;;;;;;;12.10;56.96;99437.47;4989431;28;20039;-71
2023/04/12 09:18:09;;;;;;;0.25;0.25;;;;;;;12.28;55.65;99424.63;4990664;28;20371;-71
2023/04/12 09:20:36;;;;;;;0.63;0.57;;;;;;;12.39;55.62;99425.31;4988307;28;20058;-69
2023/04/12 09:23:19;;;;;;;0.20;0.20;;;;;;;12.48;56.08;99414.84;4982689;28;20537;-71
2023/04/12 09:25:47;;;;;;;1.13;0.50;;;;;;;12.63;56.14;99430.53;4988996;28;20581;-71
2023/04/12 09:28:19;;;;;;;0.22;0.22;;;;;;;12.92;55.19;99411.38;4964174;28;20034;-68
2023/04/12 09:30:50;;;;;;;0.20;0.20;;;;;;;12.80;55.92;99401.06;4975783;28;20037;-71
2023/04/12 09:33:15;;;;;;;0.20;0.20;;;;;;;12.73;55.47;99390.31;4972544;28;20034;-71
2023/04/12 09:35:41;;;;;;;0.20;0.20;;;;;;;13.03;55.40;99391.22;4991698;28;20533;-71
2023/04/12 09:38:09;;;;;;;0.88;0.45;;;;;;;13.18;55.23;99389.88;4973850;28;20057;-71
2023/04/12 09:40:37;;;;;;;0.20;0.20;;;;;;;13.24;55.54;99382.88;4990157;28;20552;-70
2023/04/12 09:43:03;;;;;;;0.43;0.20;;;;;;;13.25;54.81;99379.00;4975251;28;20460;-71
2023/04/12 09:45:31;;;;;;;0.63;0.60;;;;;;;13.27;54.34;99365.84;4980281;28;20541;-70
2023/04/12 09:47:56;;;;;;;0.55;0.50;;;;;;;13.26;55.73;99353.50;4967268;28;20044;-71
2023/04/12 09:50:27;;;;;;;0.40;0.20;;;;;;;13.40;54.35;99369.56;5003330;28;20521;-70
2023/04/12 09:52:54;;;;;;;1.20;0.20;;;;;;;13.64;53.88;99354.19;4989515;28;20038;-69
2023/04/12 09:55:22;;;;;;;0.40;0.40;;;;;;;13.66;54.40;99354.53;4967307;28;20030;-70
2023/04/12 09:57:50;;;;;;;0.85;0.32;;;;;;;13.69;53.23;99358.34;4986204;28;20030;-68
2023/04/12 10:00:16;;;;;;;0.68;0.68;;;;;;;13.63;54.05;99349.94;4991107;28;20042;-69
2023/04/12 10:02:44;;;;;;;0.47;0.30;;;;;;;13.69;53.81;99356.44;4975030;28;20080;-70
2023/04/12 10:05:12;;;;;;;0.10;0.10;;;;;;;13.57;54.01;99329.91;5002921;28;20061;-70
2023/04/12 10:07:41;;;;;;;0.73;0.20;;;;;;;13.30;54.36;99338.00;4972601;28;20781;-70
2023/04/12 10:10:08;;;;;;;0.40;0.30;;;;;;;13.05;54.87;99315.91;4988444;28;20030;-71
2023/04/12 10:12:41;;;;;;;0.88;0.35;;;;;;;13.15;54.33;99341.28;5002139;28;20055;-71
2023/04/12 10:15:12;;;;;;;0.45;0.40;;;;;;;13.16;54.81;99343.56;4974125;28;20182;-69
2023/04/12 10:17:45;;;;;;;0.45;0.38;;;;;;;13.30;55.25;99323.69;4985995;28;20100;-70
2023/04/12 10:20:13;;;;;;;0.25;0.25;;;;;;;13.40;55.12;99314.69;4987684;28;20034;-68
2023/04/12 10:22:47;;;;;;;1.75;0.65;;;;;;;13.53;55.21;99308.31;4989894;28;20042;-71
2023/04/12 10:25:14;;;;;;;0.98;0.40;;;;;;;13.64;54.63;99310.91;4984913;28;20122;-69
2023/04/12 10:27:41;;;;;;;0.40;0.35;;;;;;;13.60;54.62;99312.88;4973843;28;20146;-71
2023/04/12 10:30:26;;;;;;;0.10;0.10;;;;;;;13.66;55.48;99311.25;4998839;28;20030;-70
2023/04/12 10:33:01;;;;;;;0.10;0.10;;;;;;;13.87;54.57;99318.28;4989032;28;20499;-70
2023/04/12 10:35:26;;;;;;;0.10;0.10;;;;;;;13.84;54.84;99295.50;4986827;28;20033;-70
2023/04/12 10:38:04;;;;;;;0.32;0.32;;;;;;;14.02;55.01;99304.13;4997998;28;20482;-70
2023/04/12 10:40:31;;;;;;;0.90;0.50;;;;;;;13.89;55.07;99295.06;4966298;28;20125;-70
2023/04/12 10:43:22;;;;;;;0.20;0.20;;;;;;;13.78;56.18;99291.00;4972249;28;20046;-69
2023/04/12 10:45:48;;;;;;;0.25;0.25;;;;;;;13.74;55.95;99279.44;4983946;28;20488;-71
2023/04/12 10:48:35;;;;;;;0.20;0.20;;;;;;;13.84;55.94;99283.94;4983742;28;20061;-68
2023/04/12 10:51:32;;;;;;;0.20;0.20;;;;;;;13.87;56.06;99283.09;4979117;28;20571;-70
2023/04/12 10:54:07;;;;;;;0.35;0.30;;;;;;;13.77;54.71;99287.50;4968288;28;20045;-70
2023/04/12 10:56:37;;;;;;;0.98;0.25;;;;;;;13.69;57.02;99286.09;4988914;28;20045;-70
2023/04/12 10:59:05;;;;;;;0.65;0.50;;;;;;;13.93;55.97;99295.78;4984331;28;20031;-70
2023/04/12 11:01:39;;;;;;;2.55;0.20;;;;;;;13.81;55.92;99290.94;4974351;28;20041;-70
2023/04/12 11:04:05;;;;;;;0.10;0.10;;;;;;;13.62;57.25;99288.13;4988776;28;20046;-70
2023/04/12 11:06:55;;;;;;;0.40;0.30;;;;;;;13.54;58.84;99298.28;4972841;28;20036;-71
2023/04/12 11:09:56;;;;;;;0.38;0.38;;;;;;;13.24;60.78;99303.72;4982514;28;20042;-71
2023/04/12 11:12:37;;;;;;;2.35;0.90;;;;;;;12.97;62.94;99300.16;4978404;28;20379;-69
2023/04/12 11:15:04;;;;;;;0.40;0.35;;;;;;;12.62;66.63;99299.34;4968001;28;20446;-66
2023/04/12 11:17:54;;;;;;;0.55;0.45;;;;;;;12.56;68.42;99295.53;4987407;28;20437;-71
2023/04/12 11:20:19;;;;;;;3.40;0.60;;;;;;;12.81;70.57;99310.75;4974999;28;20050;-72
2023/04/12 11:22:45;;;;;;;2.35;0.63;;;;;;;12.57;71.53;99286.28;4965424;28;20383;-71
2023/04/12 11:25:16;;;;;;;0.20;0.20;;;;;;;12.28;73.26;99295.06;4980650;28;20034;-71
2023/04/12 11:27:48;;;;;;;0.28;0.28;;;;;;;12.03;76.98;99297.97;4971827;28;20615;-72
2023/04/12 11:30:13;;;;;;;0.75;0.75;;;;;;;11.96;77.71;99294.56;4988896;28;20034;-72
2023/04/12 11:32:40;;;;;;;1.05;0.63;;;;;;;12.10;77.63;99295.19;4969869;28;20080;-69
2023/04/12 11:35:06;;;;;;;1.10;0.60;;;;;;;11.99;79.66;99297.22;4986784;28;20121;-72
2023/04/12 11:37:34;;;;;;;0.60;0.60;;;;;;;12.02;80.31;99298.38;4971485;28;20049;-74
2023/04/12 11:40:04;;;;;;;0.68;0.40;;;;;;;12.16;80.24;99299.00;4981979;28;20042;-71
2023/04/12 11:42:31;;;;;;;0.77;0.40;;;;;;;12.08;80.74;99286.00;4998477;28;20166;-70
2023/04/12 11:44:57;;;;;;;0.20;0.20;;;;;;;12.06;81.61;99299.84;5002366;28;20121;-75
2023/04/12 11:47:24;;;;;;;0.20;0.20;;;;;;;11.68;84.01;99290.13;5004719;28;20045;-72
2023/04/12 11:49:54;;;;;;;0.50;0.50;;;;;;;11.87;84.19;99286.13;4989620;28;20038;-68
2023/04/12 11:52:25;;;;;;;0.32;0.32;;;;;;;11.86;85.66;99295.41;4954383;28;20038;-72
2023/04/12 11:54:55;;;;;;;0.73;0.32;;;;;;;11.92;86.54;99286.50;4990544;28;20038;-72
2023/04/12 11:57:20;;;;;;;1.08;1.08;;;;;;;11.97;86.57;99287.97;4988620;28;20091;-72
2023/04/12 11:59:47;;;;;;;0.45;0.20;;;;;;;11.95;87.16;99293.00;4988296;28;20030;-71
2023/04/12 12:02:16;;;;;;;0.47;0.47;;;;;;;11.73;88.57;99281.59;4985999;28;20038;-71